Time;durP1;ratioP1;P1;durP2;ratioP2;P2;SDS_P1;SDS_P2;PMS_P1;PMS_P2;Temp;Humidity;BMP_temperature;BMP_pressure;BME280_temperature;BME280_humidity;BME280_pressure;Samples;Min_cycle;Max_cycle;Signal;HPM_P1;HPM_P2
2023/04/08 00:00:38;;;;;;;0.50;0.40;;;7.30;99.90;;;;;;5055866;28;20559;-79
2023/04/08 00:03:05;;;;;;;0.50;0.40;;;7.40;99.90;;;;;;5057795;28;20190;-79
2023/04/08 00:05:32;;;;;;;0.50;0.40;;;7.30;99.90;;;;;;5056135;28;20210;-79
2023/04/08 00:08:00;;;;;;;0.50;0.40;;;7.30;99.90;;;;;;5055432;28;20669;-80
2023/04/08 00:10:27;;;;;;;0.50;0.40;;;7.30;99.90;;;;;;5054519;28;20205;-79
2023/04/08 00:12:54;;;;;;;0.70;0.70;;;7.20;99.90;;;;;;5054651;28;20676;-79
2023/04/08 00:15:21;;;;;;;0.50;0.40;;;7.20;99.90;;;;;;5061080;28;20323;-82
2023/04/08 00:17:48;;;;;;;0.50;0.40;;;7.10;99.90;;;;;;5067852;28;20228;-81
2023/04/08 00:20:15;;;;;;;0.50;0.40;;;7.10;99.90;;;;;;5062734;28;20195;-78
2023/04/08 00:22:42;;;;;;;0.50;0.40;;;7.10;99.90;;;;;;5055871;28;20618;-80
2023/04/08 00:25:10;;;;;;;8.70;8.27;;;7.10;99.90;;;;;;5055326;28;20301;-79
2023/04/08 00:27:37;;;;;;;0.50;0.40;;;7.20;99.90;;;;;;5063905;28;20191;-80
2023/04/08 00:30:04;;;;;;;0.50;0.40;;;7.20;99.90;;;;;;5059709;28;20190;-80
2023/04/08 00:32:31;;;;;;;0.50;0.40;;;7.20;99.90;;;;;;5107472;22;20227;-78
2023/04/08 00:34:58;;;;;;;0.50;0.40;;;7.20;99.90;;;;;;5037403;28;20298;-76
2023/04/08 00:37:25;;;;;;;0.50;0.40;;;7.20;99.90;;;;;;5035155;28;20215;-76
2023/04/08 00:39:53;;;;;;;0.50;0.50;;;7.30;99.90;;;;;;5035273;28;20582;-76
2023/04/08 00:42:21;;;;;;;0.50;0.40;;;7.30;99.90;;;;;;5035106;28;20223;-76
2023/04/08 00:44:48;;;;;;;0.50;0.40;;;7.30;99.90;;;;;;5034688;28;20203;-76
2023/04/08 00:47:15;;;;;;;0.50;0.40;;;7.30;99.90;;;;;;5035427;28;20192;-76
2023/04/08 00:49:42;;;;;;;0.50;0.35;;;7.30;99.90;;;;;;5035082;28;20294;-76
2023/04/08 00:52:09;;;;;;;0.50;0.40;;;7.30;99.90;;;;;;5035578;28;20223;-76
2023/04/08 00:54:37;;;;;;;0.50;0.40;;;7.40;99.90;;;;;;5035747;28;20199;-76
2023/04/08 00:57:05;;;;;;;0.50;0.40;;;7.40;99.90;;;;;;5035023;28;20760;-76
2023/04/08 00:59:34;;;;;;;0.50;0.40;;;7.40;99.90;;;;;;5035204;28;20693;-76
2023/04/08 01:02:12;;;;;;;0.50;0.40;;;7.40;99.90;;;;;;5034007;28;20215;-76
2023/04/08 01:04:47;;;;;;;0.50;0.40;;;7.40;99.90;;;;;;5033639;28;20203;-76
2023/04/08 01:07:18;;;;;;;0.50;0.40;;;7.40;99.90;;;;;;5026281;28;20198;-77
2023/04/08 01:09:47;;;;;;;0.50;0.40;;;7.50;99.90;;;;;;5033314;28;20228;-76
2023/04/08 01:12:26;;;;;;;0.50;0.50;;;7.50;99.90;;;;;;5034542;28;20215;-76
2023/04/08 01:15:00;;;;;;;0.50;0.40;;;7.50;99.90;;;;;;5034442;28;20203;-76
2023/04/08 01:17:26;;;;;;;0.50;0.40;;;7.50;99.90;;;;;;5034889;28;20747;-76
2023/04/08 01:19:56;;;;;;;0.50;0.40;;;7.50;99.90;;;;;;5033386;28;20203;-77
2023/04/08 01:22:28;;;;;;;0.50;0.40;;;7.50;99.90;;;;;;5034664;28;20225;-76
2023/04/08 01:25:02;;;;;;;0.50;0.40;;;7.50;99.90;;;;;;5037491;28;20290;-76
2023/04/08 01:27:32;;;;;;;0.50;0.40;;;7.50;99.90;;;;;;5037711;28;20196;-76
2023/04/08 01:29:59;;;;;;;0.50;0.40;;;7.50;99.90;;;;;;5037704;28;20658;-76
2023/04/08 01:32:28;;;;;;;0.50;0.30;;;7.40;99.90;;;;;;5039005;28;20231;-76
2023/04/08 01:34:56;;;;;;;0.50;0.40;;;7.40;99.90;;;;;;5038570;28;20352;-76
2023/04/08 01:37:25;;;;;;;0.50;0.40;;;7.40;99.90;;;;;;5038108;28;20215;-76
2023/04/08 01:39:54;;;;;;;0.50;0.40;;;7.50;99.90;;;;;;5037836;28;20203;-76
2023/04/08 01:42:22;;;;;;;0.50;0.40;;;7.50;99.90;;;;;;5038588;28;20593;-76
2023/04/08 01:44:52;;;;;;;0.50;0.40;;;7.50;99.90;;;;;;5038079;28;20479;-76
2023/04/08 01:47:19;;;;;;;0.50;0.40;;;7.60;99.90;;;;;;5038525;28;20196;-76
2023/04/08 01:49:46;;;;;;;0.50;0.40;;;7.50;99.90;;;;;;5036939;28;20199;-76
2023/04/08 01:52:16;;;;;;;0.50;0.40;;;7.50;99.90;;;;;;5037161;28;20223;-76
2023/04/08 01:54:43;;;;;;;5.95;2.60;;;7.50;99.90;;;;;;5037191;28;20670;-76
2023/04/08 01:57:14;;;;;;;0.90;0.90;;;7.40;99.90;;;;;;5030405;28;20229;-76
2023/04/08 01:59:42;;;;;;;0.65;0.65;;;7.20;99.90;;;;;;5038387;28;20203;-76
2023/04/08 02:02:12;;;;;;;0.50;0.40;;;7.00;99.90;;;;;;5028448;28;20226;-76
2023/04/08 02:04:38;;;;;;;0.50;0.38;;;6.90;99.90;;;;;;5037029;28;20203;-77
2023/04/08 02:07:05;;;;;;;0.50;0.40;;;6.90;99.90;;;;;;5036463;28;20201;-76
2023/04/08 02:09:33;;;;;;;1.63;1.40;;;6.80;99.90;;;;;;5037090;28;20211;-77
2023/04/08 02:12:00;;;;;;;0.50;0.40;;;6.70;99.90;;;;;;5039703;28;20657;-76
2023/04/08 02:14:28;;;;;;;0.50;0.40;;;6.70;99.90;;;;;;5034176;28;20230;-76
2023/04/08 02:17:01;;;;;;;0.50;0.40;;;6.60;99.90;;;;;;5033721;28;20230;-76
2023/04/08 02:19:31;;;;;;;0.50;0.40;;;6.50;99.90;;;;;;5034118;28;20203;-76
2023/04/08 02:22:05;;;;;;;0.50;0.40;;;6.40;99.90;;;;;;5033959;28;20226;-76
2023/04/08 02:24:33;;;;;;;0.50;0.40;;;6.40;99.90;;;;;;5033942;28;20195;-76
2023/04/08 02:27:01;;;;;;;1.30;1.20;;;6.40;99.90;;;;;;5033621;28;20206;-76
2023/04/08 02:29:31;;;;;;;0.50;0.40;;;6.30;99.90;;;;;;5033871;28;20199;-76
2023/04/08 02:31:58;;;;;;;0.50;0.40;;;6.20;99.90;;;;;;5033693;28;20227;-76
2023/04/08 02:34:25;;;;;;;0.50;0.40;;;6.20;99.90;;;;;;5033895;28;20226;-76
2023/04/08 02:36:54;;;;;;;0.50;0.40;;;6.10;99.90;;;;;;5033328;28;20223;-76
2023/04/08 02:39:21;;;;;;;0.50;0.40;;;6.10;99.90;;;;;;5033718;28;20678;-76
2023/04/08 02:41:47;;;;;;;0.50;0.40;;;6.00;99.90;;;;;;5033331;28;20203;-75
2023/04/08 02:44:14;;;;;;;3.58;1.50;;;5.90;99.90;;;;;;5033574;28;20203;-76
2023/04/08 02:46:41;;;;;;;0.50;0.40;;;5.80;99.90;;;;;;5033530;28;20736;-76
2023/04/08 02:49:08;;;;;;;0.60;0.40;;;5.70;99.90;;;;;;5033492;28;20199;-76
2023/04/08 02:51:34;;;;;;;0.50;0.40;;;5.70;99.90;;;;;;5033634;28;20196;-76
2023/04/08 02:54:02;;;;;;;0.50;0.40;;;5.70;99.90;;;;;;5033303;28;20665;-76
2023/04/08 02:56:29;;;;;;;0.50;0.40;;;5.70;99.90;;;;;;5033088;28;20200;-76
2023/04/08 02:58:56;;;;;;;0.50;0.40;;;5.70;99.90;;;;;;5033044;28;20199;-76
2023/04/08 03:01:23;;;;;;;0.50;0.40;;;5.70;99.90;;;;;;5033535;28;20203;-75
2023/04/08 03:03:50;;;;;;;0.50;0.40;;;5.70;99.90;;;;;;5033157;28;20223;-75
2023/04/08 03:06:17;;;;;;;0.50;0.40;;;5.60;99.90;;;;;;5033185;28;20199;-76
2023/04/08 03:08:44;;;;;;;1.30;1.23;;;5.60;99.90;;;;;;5033142;28;20207;-76
2023/04/08 03:11:12;;;;;;;0.50;0.43;;;5.60;99.90;;;;;;5033064;28;20290;-76
2023/04/08 03:13:38;;;;;;;0.50;0.40;;;5.60;99.90;;;;;;5033009;28;20223;-74
2023/04/08 03:16:06;;;;;;;0.50;0.40;;;5.70;99.90;;;;;;5032711;28;20195;-76
2023/04/08 03:18:34;;;;;;;0.80;0.77;;;5.70;99.90;;;;;;5032875;28;20215;-77
2023/04/08 03:21:02;;;;;;;0.50;0.40;;;5.70;99.90;;;;;;5032725;28;20286;-76
2023/04/08 03:23:28;;;;;;;0.50;0.40;;;5.80;99.90;;;;;;5032850;28;20229;-76
2023/04/08 03:25:55;;;;;;;0.50;0.40;;;5.80;99.90;;;;;;5032462;28;20214;-76
2023/04/08 03:28:23;;;;;;;1.17;1.15;;;5.80;99.90;;;;;;5032796;28;20206;-76
2023/04/08 03:30:50;;;;;;;0.50;0.40;;;5.80;99.90;;;;;;5032539;28;20195;-74
2023/04/08 03:33:17;;;;;;;0.50;0.40;;;5.80;99.90;;;;;;5032574;28;20218;-76
2023/04/08 03:35:43;;;;;;;0.50;0.40;;;5.80;99.90;;;;;;5032375;28;20298;-76
2023/04/08 03:38:10;;;;;;;0.50;0.40;;;5.90;99.90;;;;;;5032325;28;20211;-76
2023/04/08 03:40:37;;;;;;;0.50;0.40;;;5.90;99.90;;;;;;5032909;28;20195;-76
2023/04/08 03:43:04;;;;;;;0.50;0.40;;;5.90;99.90;;;;;;5032386;28;20714;-76
2023/04/08 03:45:32;;;;;;;0.50;0.40;;;5.90;99.90;;;;;;5031728;28;20245;-75
2023/04/08 03:47:59;;;;;;;0.95;0.93;;;6.00;99.90;;;;;;5032136;28;20203;-76
2023/04/08 03:50:26;;;;;;;0.75;0.75;;;6.10;99.90;;;;;;5032379;28;20196;-76
2023/04/08 03:52:52;;;;;;;0.50;0.40;;;6.10;99.90;;;;;;5032128;28;20716;-75
2023/04/08 03:55:19;;;;;;;0.52;0.47;;;6.10;99.90;;;;;;5032262;28;20191;-76
2023/04/08 03:57:46;;;;;;;0.50;0.40;;;6.00;99.90;;;;;;5032269;28;20226;-75
2023/04/08 04:00:14;;;;;;;0.50;0.40;;;6.00;99.90;;;;;;5032036;28;20192;-76
2023/04/08 04:02:42;;;;;;;1.25;1.25;;;5.90;99.90;;;;;;5032434;28;20249;-75
2023/04/08 04:05:09;;;;;;;0.50;0.40;;;6.00;99.90;;;;;;5031550;28;20214;-75
2023/04/08 04:07:36;;;;;;;0.50;0.40;;;6.00;99.90;;;;;;5032020;28;20194;-76
2023/04/08 04:10:03;;;;;;;0.50;0.40;;;6.10;99.90;;;;;;5031598;28;20203;-76
2023/04/08 04:12:29;;;;;;;0.50;0.40;;;6.10;99.90;;;;;;5032142;28;20239;-76
2023/04/08 04:14:56;;;;;;;0.50;0.40;;;6.20;99.90;;;;;;5031516;28;20718;-76
2023/04/08 04:17:23;;;;;;;0.50;0.40;;;6.20;99.90;;;;;;5031549;28;20218;-76
2023/04/08 04:19:51;;;;;;;0.50;0.40;;;6.30;99.90;;;;;;5032020;28;20206;-75
2023/04/08 04:22:18;;;;;;;0.50;0.38;;;6.20;99.90;;;;;;5023875;28;20230;-76
2023/04/08 04:24:47;;;;;;;0.50;0.40;;;6.20;99.90;;;;;;5031679;28;20198;-76
2023/04/08 04:27:16;;;;;;;0.95;0.95;;;6.20;99.90;;;;;;5031293;28;20192;-76
2023/04/08 04:29:42;;;;;;;1.63;1.55;;;6.20;99.90;;;;;;5031552;28;20199;-76
2023/04/08 04:32:09;;;;;;;0.50;0.40;;;6.10;99.90;;;;;;5031083;28;20722;-76
2023/04/08 04:34:36;;;;;;;0.50;0.40;;;6.10;99.90;;;;;;5031461;28;20192;-76
2023/04/08 04:37:04;;;;;;;0.50;0.40;;;6.10;99.90;;;;;;5031013;28;20210;-76
2023/04/08 04:39:31;;;;;;;0.50;0.40;;;6.10;99.90;;;;;;5031476;28;20199;-75
2023/04/08 04:41:58;;;;;;;2.60;2.47;;;6.20;99.90;;;;;;5031234;28;20219;-76
2023/04/08 04:44:25;;;;;;;0.50;0.40;;;6.20;99.90;;;;;;5031317;28;20195;-76
2023/04/08 04:46:51;;;;;;;0.50;0.40;;;6.20;99.90;;;;;;5031116;28;20191;-76
2023/04/08 04:49:18;;;;;;;0.50;0.40;;;6.10;99.90;;;;;;5031593;28;20195;-76
2023/04/08 04:51:45;;;;;;;0.50;0.40;;;6.10;99.90;;;;;;5031405;28;20291;-76
2023/04/08 04:54:13;;;;;;;0.50;0.40;;;6.10;99.90;;;;;;5031124;28;20199;-74
2023/04/08 04:56:40;;;;;;;0.50;0.40;;;6.00;99.90;;;;;;5030309;28;20206;-76
2023/04/08 04:59:07;;;;;;;0.50;0.40;;;6.10;99.90;;;;;;5030750;28;20218;-75
2023/04/08 05:01:34;;;;;;;0.50;0.50;;;6.20;99.90;;;;;;5031143;28;20195;-75
2023/04/08 05:04:01;;;;;;;1.60;0.82;;;6.30;99.90;;;;;;5031209;28;20215;-75
2023/04/08 05:06:27;;;;;;;1.05;1.05;;;6.30;99.90;;;;;;5031016;28;20195;-75
2023/04/08 05:08:54;;;;;;;0.50;0.40;;;6.30;99.90;;;;;;5030831;28;20191;-75
2023/04/08 05:11:22;;;;;;;0.50;0.50;;;6.30;99.90;;;;;;5031177;28;20195;-75
2023/04/08 05:13:49;;;;;;;0.50;0.40;;;6.30;99.90;;;;;;5031114;28;20218;-75
2023/04/08 05:16:16;;;;;;;0.50;0.40;;;6.20;99.90;;;;;;5030470;28;20195;-75
2023/04/08 05:18:44;;;;;;;0.50;0.40;;;6.20;99.90;;;;;;5031051;28;20230;-76
2023/04/08 05:21:10;;;;;;;0.50;0.40;;;6.20;99.90;;;;;;5030735;28;20199;-75
2023/04/08 05:23:37;;;;;;;0.50;0.40;;;6.20;99.90;;;;;;5031181;28;20214;-75
2023/04/08 05:26:07;;;;;;;0.50;0.40;;;6.20;99.90;;;;;;5030649;28;20203;-75
2023/04/08 05:28:35;;;;;;;0.50;0.40;;;6.20;99.90;;;;;;5031041;28;20199;-75
2023/04/08 05:31:02;;;;;;;3.42;2.78;;;6.20;99.90;;;;;;5031187;28;20195;-75
2023/04/08 05:33:29;;;;;;;0.50;0.40;;;6.30;99.90;;;;;;5031266;28;20585;-75
2023/04/08 05:35:56;;;;;;;1.75;1.58;;;6.30;99.90;;;;;;5030551;28;20227;-75
2023/04/08 05:38:22;;;;;;;0.50;0.40;;;6.20;99.90;;;;;;5030710;28;20724;-75
2023/04/08 05:40:50;;;;;;;0.50;0.40;;;6.20;99.90;;;;;;5030923;28;20198;-76
2023/04/08 05:43:17;;;;;;;0.50;0.40;;;6.30;99.90;;;;;;5030415;28;20703;-75
2023/04/08 05:45:45;;;;;;;0.50;0.40;;;6.30;99.90;;;;;;5030368;28;20642;-74
2023/04/08 05:48:12;;;;;;;0.50;0.40;;;6.40;99.90;;;;;;5030505;28;20202;-75
2023/04/08 05:50:39;;;;;;;0.50;0.40;;;6.30;99.90;;;;;;5030788;28;20191;-76
2023/04/08 05:53:05;;;;;;;0.50;0.50;;;6.40;99.90;;;;;;5030543;28;20211;-75
2023/04/08 05:55:32;;;;;;;3.50;2.33;;;6.50;99.90;;;;;;5030513;28;20574;-75
2023/04/08 05:57:59;;;;;;;0.55;0.40;;;6.60;99.90;;;;;;5030279;28;20215;-75
2023/04/08 06:00:26;;;;;;;0.85;0.85;;;6.50;99.90;;;;;;5030974;28;20242;-75
2023/04/08 06:02:54;;;;;;;3.53;1.50;;;6.60;99.90;;;;;;5030398;28;20215;-75
2023/04/08 06:05:21;;;;;;;1.65;1.55;;;6.70;99.90;;;;;;5030138;28;20230;-75
2023/04/08 06:07:47;;;;;;;2.13;1.85;;;6.60;99.90;;;;;;5030992;28;20188;-74
2023/04/08 06:10:14;;;;;;;0.63;0.63;;;6.60;99.90;;;;;;5034180;28;20209;-75
2023/04/08 06:12:41;;;;;;;2.65;2.55;;;6.60;99.90;;;;;;5034220;28;20248;-75
2023/04/08 06:15:09;;;;;;;2.35;2.25;;;6.70;99.90;;;;;;5033629;28;20202;-75
2023/04/08 06:17:36;;;;;;;0.50;0.40;;;6.70;99.90;;;;;;5034026;28;20215;-75
2023/04/08 06:20:08;;;;;;;1.30;1.20;;;6.80;99.90;;;;;;5034078;28;20195;-75
2023/04/08 06:22:34;;;;;;;0.50;0.40;;;6.80;99.90;;;;;;5034128;28;20602;-75
2023/04/08 06:25:01;;;;;;;0.70;0.70;;;6.90;99.90;;;;;;5033672;28;20203;-76
2023/04/08 06:27:28;;;;;;;0.50;0.40;;;7.00;99.90;;;;;;5033768;28;20663;-75
2023/04/08 06:29:56;;;;;;;0.60;0.60;;;7.10;99.90;;;;;;5033787;28;20203;-75
2023/04/08 06:32:22;;;;;;;0.50;0.40;;;7.20;99.90;;;;;;5033689;28;20294;-75
2023/04/08 06:34:49;;;;;;;0.50;0.30;;;7.20;99.90;;;;;;5058401;23;20223;-80
2023/04/08 06:37:17;;;;;;;1.30;1.25;;;7.20;99.90;;;;;;5039921;28;20266;-82
2023/04/08 06:39:44;;;;;;;0.50;0.40;;;7.10;99.90;;;;;;5041585;28;20215;-81
2023/04/08 06:42:11;;;;;;;0.50;0.30;;;7.20;99.90;;;;;;5032871;28;20617;-81
2023/04/08 06:44:38;;;;;;;0.50;0.40;;;7.30;99.90;;;;;;5041224;28;20298;-81
2023/04/08 06:47:05;;;;;;;1.77;1.67;;;7.30;99.90;;;;;;5040468;28;20199;-80
2023/04/08 06:49:31;;;;;;;1.02;0.93;;;7.40;99.90;;;;;;5041386;28;20191;-80
2023/04/08 06:51:58;;;;;;;0.50;0.40;;;7.40;99.90;;;;;;5041370;28;20565;-80
2023/04/08 06:54:26;;;;;;;3.40;3.10;;;7.50;99.90;;;;;;5032552;28;20227;-80
2023/04/08 06:56:53;;;;;;;1.27;1.27;;;7.40;99.90;;;;;;5041068;28;20200;-80
2023/04/08 06:59:20;;;;;;;0.85;0.85;;;7.50;99.90;;;;;;5040231;28;20222;-81
2023/04/08 07:01:47;;;;;;;3.17;2.95;;;7.60;99.90;;;;;;5039863;28;20219;-80
2023/04/08 07:04:13;;;;;;;0.50;0.40;;;7.70;99.90;;;;;;5040364;28;20219;-80
2023/04/08 07:06:42;;;;;;;3.85;3.60;;;7.70;99.90;;;;;;5040847;28;20196;-80
2023/04/08 07:09:09;;;;;;;0.50;0.40;;;7.80;99.90;;;;;;5039769;28;20192;-80
2023/04/08 07:11:37;;;;;;;1.65;1.55;;;7.80;99.90;;;;;;5040481;28;20206;-80
2023/04/08 07:14:04;;;;;;;0.50;0.40;;;7.80;99.90;;;;;;5039593;28;20215;-79
2023/04/08 07:16:31;;;;;;;0.55;0.50;;;7.80;99.90;;;;;;5039847;28;20199;-81
2023/04/08 07:18:57;;;;;;;2.80;1.95;;;7.90;99.90;;;;;;5039209;28;20280;-81
2023/04/08 07:21:24;;;;;;;0.50;0.40;;;7.80;99.90;;;;;;5037880;28;20628;-80
2023/04/08 07:23:51;;;;;;;4.10;2.60;;;7.80;99.90;;;;;;5039703;28;20218;-81
2023/04/08 07:26:18;;;;;;;1.60;1.50;;;7.70;99.90;;;;;;5039474;28;20203;-80
2023/04/08 07:28:46;;;;;;;3.78;3.47;;;7.60;99.90;;;;;;5031571;28;20198;-81
2023/04/08 07:31:14;;;;;;;1.25;1.15;;;7.60;99.90;;;;;;5057159;28;20264;-79
2023/04/08 07:33:41;;;;;;;0.50;0.50;;;7.70;99.90;;;;;;5051415;28;20275;-81
2023/04/08 07:36:10;;;;;;;0.65;0.65;;;7.60;99.90;;;;;;5040075;28;20195;-80
2023/04/08 07:38:37;;;;;;;3.10;1.75;;;7.70;99.90;;;;;;5040790;28;20207;-81
2023/04/08 07:41:03;;;;;;;0.75;0.75;;;7.70;99.90;;;;;;5040604;28;20225;-78
2023/04/08 07:43:33;;;;;;;0.50;0.40;;;7.60;99.90;;;;;;5040481;28;20286;-81
2023/04/08 07:46:04;;;;;;;0.50;0.40;;;7.60;99.90;;;;;;5039487;28;20235;-81
2023/04/08 07:48:32;;;;;;;2.03;1.92;;;7.50;99.90;;;;;;5023742;28;20603;-80
2023/04/08 07:51:02;;;;;;;0.50;0.40;;;7.40;99.90;;;;;;5039867;28;20219;-81
2023/04/08 07:53:29;;;;;;;0.60;0.60;;;7.60;99.90;;;;;;5024009;28;20206;-81
2023/04/08 07:55:56;;;;;;;0.50;0.40;;;7.70;99.90;;;;;;5040529;28;20202;-81
2023/04/08 07:58:23;;;;;;;1.40;0.77;;;7.90;99.90;;;;;;5040375;28;20215;-81
2023/04/08 08:00:50;;;;;;;0.90;0.90;;;8.10;99.90;;;;;;5039779;28;20202;-81
2023/04/08 08:03:18;;;;;;;0.50;0.40;;;8.20;99.90;;;;;;5039059;28;20206;-80
2023/04/08 08:05:45;;;;;;;3.20;2.80;;;8.30;99.90;;;;;;5039431;28;20219;-81
2023/04/08 08:08:12;;;;;;;0.50;0.50;;;8.50;99.90;;;;;;5039914;28;20290;-81
2023/04/08 08:10:39;;;;;;;0.50;0.40;;;8.70;99.90;;;;;;5039486;28;20226;-81
2023/04/08 08:13:06;;;;;;;0.60;0.60;;;8.80;99.90;;;;;;5039259;28;20207;-79
2023/04/08 08:15:33;;;;;;;1.67;1.58;;;8.80;99.90;;;;;;5038818;28;20223;-81
2023/04/08 08:18:00;;;;;;;0.50;0.50;;;8.80;99.90;;;;;;5039177;28;20195;-81
2023/04/08 08:20:28;;;;;;;0.50;0.40;;;9.00;99.90;;;;;;5039096;28;20201;-81
2023/04/08 08:22:55;;;;;;;0.50;0.40;;;9.10;99.90;;;;;;5039791;28;20203;-81
2023/04/08 08:25:22;;;;;;;0.50;0.40;;;9.30;99.90;;;;;;5038608;28;20314;-81
2023/04/08 08:27:49;;;;;;;0.50;0.40;;;9.40;99.90;;;;;;5039351;28;20209;-81
2023/04/08 08:30:18;;;;;;;0.50;0.40;;;9.60;99.90;;;;;;5039471;28;20196;-80
2023/04/08 08:32:46;;;;;;;0.50;0.40;;;9.70;99.90;;;;;;5039074;28;20199;-80
2023/04/08 08:35:12;;;;;;;2.92;2.72;;;9.90;99.90;;;;;;5038591;28;20290;-80
2023/04/08 08:37:40;;;;;;;0.80;0.70;;;10.00;99.90;;;;;;5038330;28;20286;-80
2023/04/08 08:40:09;;;;;;;0.85;0.85;;;10.00;99.90;;;;;;5038340;28;20207;-79
2023/04/08 08:42:36;;;;;;;1.77;1.67;;;10.10;99.90;;;;;;5039117;28;20203;-78
2023/04/08 08:45:04;;;;;;;0.50;0.40;;;10.20;99.90;;;;;;5039326;28;20278;-80
2023/04/08 08:47:31;;;;;;;0.50;0.30;;;10.30;99.90;;;;;;5037961;28;20196;-80
2023/04/08 08:49:58;;;;;;;0.50;0.40;;;10.40;99.90;;;;;;5039386;28;20711;-80
2023/04/08 08:52:25;;;;;;;0.70;0.70;;;10.10;99.90;;;;;;5038210;28;20199;-80
2023/04/08 08:54:59;;;;;;;0.50;0.40;;;10.10;99.90;;;;;;5038978;28;20598;-80
2023/04/08 08:57:26;;;;;;;1.90;1.75;;;10.20;99.90;;;;;;5038051;28;20199;-80
2023/04/08 08:59:53;;;;;;;0.50;0.40;;;10.50;99.90;;;;;;5038984;28;20215;-80
2023/04/08 09:02:27;;;;;;;3.63;2.08;;;10.60;99.90;;;;;;5038935;28;20199;-80
2023/04/08 09:04:59;;;;;;;0.50;0.40;;;11.20;99.90;;;;;;5038425;28;20420;-80
2023/04/08 09:07:28;;;;;;;0.50;0.40;;;11.50;99.90;;;;;;5038541;28;20207;-80
2023/04/08 09:09:56;;;;;;;3.65;2.70;;;11.90;99.90;;;;;;5038303;28;20434;-81
2023/04/08 09:12:26;;;;;;;3.00;1.42;;;11.90;99.90;;;;;;5030558;28;20278;-80
2023/04/08 09:15:04;;;;;;;0.50;0.43;;;11.80;99.90;;;;;;5039186;28;20239;-81
2023/04/08 09:17:35;;;;;;;1.30;0.93;;;11.80;99.90;;;;;;5043218;28;20203;-82
2023/04/08 09:20:10;;;;;;;0.50;0.40;;;11.70;99.90;;;;;;5046788;28;20239;-80
2023/04/08 09:22:55;;;;;;;1.13;1.00;;;11.80;99.90;;;;;;5027629;28;20537;-80
2023/04/08 09:25:25;;;;;;;1.67;1.58;;;11.80;99.90;;;;;;5037755;28;20564;-80
2023/04/08 09:27:54;;;;;;;1.35;1.27;;;11.70;99.90;;;;;;5027745;28;20196;-80
2023/04/08 09:30:23;;;;;;;2.17;1.77;;;11.70;99.90;;;;;;5037270;28;20219;-80
2023/04/08 09:32:51;;;;;;;1.50;1.05;;;11.80;99.90;;;;;;5038953;28;20195;-79
2023/04/08 09:35:19;;;;;;;1.88;1.77;;;12.00;99.90;;;;;;5030553;28;20231;-79
2023/04/08 09:37:46;;;;;;;0.50;0.40;;;12.30;99.90;;;;;;5040164;28;20209;-80
2023/04/08 09:40:14;;;;;;;1.40;1.30;;;12.80;99.90;;;;;;5039184;28;20487;-80
2023/04/08 09:42:44;;;;;;;1.03;0.93;;;13.60;99.90;;;;;;5033028;28;20446;-79
2023/04/08 09:45:13;;;;;;;0.50;0.40;;;15.90;99.90;;;;;;5058792;28;20469;-76
2023/04/08 09:47:52;;;;;;;0.50;0.40;;;17.20;99.90;;;;;;5052247;28;20443;-80
2023/04/08 09:50:24;;;;;;;0.50;0.30;;;17.70;99.90;;;;;;5042773;28;20528;-81
2023/04/08 09:52:56;;;;;;;0.70;0.70;;;17.00;99.90;;;;;;5042681;28;20434;-81
2023/04/08 09:55:26;;;;;;;0.87;0.87;;;16.30;99.90;;;;;;5042746;28;20475;-81
2023/04/08 09:57:58;;;;;;;0.50;0.30;;;15.80;99.90;;;;;;5043774;28;20452;-81
2023/04/08 10:00:33;;;;;;;3.63;1.77;;;15.40;99.90;;;;;;5043141;28;20478;-81
2023/04/08 10:03:10;;;;;;;0.50;0.30;;;14.90;99.90;;;;;;5043289;28;20445;-81
2023/04/08 10:05:38;;;;;;;0.50;0.30;;;14.70;99.90;;;;;;5027215;28;20457;-81
2023/04/08 10:08:06;;;;;;;0.60;0.60;;;14.50;99.90;;;;;;5042915;28;20537;-81
2023/04/08 10:10:34;;;;;;;0.50;0.40;;;14.20;99.90;;;;;;5041526;28;20438;-80
2023/04/08 10:13:01;;;;;;;0.50;0.40;;;13.80;99.90;;;;;;5036543;28;20513;-82
2023/04/08 10:15:30;;;;;;;0.50;0.30;;;13.60;99.90;;;;;;5042514;28;20454;-81
2023/04/08 10:18:32;;;;;;;0.50;0.40;;;13.30;99.90;;;;;;5044553;28;20434;-80
2023/04/08 10:20:59;;;;;;;0.50;0.40;;;12.90;99.90;;;;;;5033555;28;20503;-81
2023/04/08 10:23:58;;;;;;;0.50;0.40;;;12.90;99.90;;;;;;5035364;28;20536;-81
2023/04/08 10:26:32;;;;;;;1.13;1.07;;;12.80;99.90;;;;;;5043268;28;20458;-81
2023/04/08 10:29:45;;;;;;;0.50;0.40;;;12.60;99.90;;;;;;5043233;28;20945;-81
2023/04/08 10:32:40;;;;;;;0.60;0.60;;;12.10;99.90;;;;;;5036220;28;20508;-81
2023/04/08 10:35:07;;;;;;;0.50;0.40;;;12.00;99.90;;;;;;5034667;28;20464;-81
2023/04/08 10:37:33;;;;;;;1.07;0.83;;;12.00;99.90;;;;;;5042883;28;20456;-81
2023/04/08 10:40:00;;;;;;;1.07;1.00;;;11.60;99.90;;;;;;5042741;28;20477;-81
2023/04/08 10:42:28;;;;;;;0.50;0.40;;;11.50;99.90;;;;;;5042684;28;20452;-81
2023/04/08 10:44:59;;;;;;;0.50;0.40;;;11.30;99.90;;;;;;5042395;28;21011;-80
2023/04/08 10:47:27;;;;;;;0.60;0.50;;;11.20;99.90;;;;;;5042223;28;20450;-80
2023/04/08 10:49:55;;;;;;;0.50;0.40;;;11.10;99.90;;;;;;5043466;28;20207;-80
2023/04/08 10:52:22;;;;;;;0.50;0.40;;;11.00;99.90;;;;;;5041490;28;20263;-80
2023/04/08 10:54:49;;;;;;;0.50;0.40;;;10.80;99.90;;;;;;5041098;28;20211;-80
2023/04/08 10:57:23;;;;;;;0.50;0.40;;;10.80;99.90;;;;;;5041676;28;20449;-78
2023/04/08 10:59:50;;;;;;;0.50;0.40;;;10.90;99.90;;;;;;5041717;28;20215;-80
2023/04/08 11:02:16;;;;;;;0.50;0.50;;;10.90;99.90;;;;;;5041405;28;20203;-80
2023/04/08 11:04:44;;;;;;;0.50;0.37;;;11.20;99.90;;;;;;5043135;28;20489;-80
2023/04/08 11:07:13;;;;;;;0.50;0.40;;;11.60;99.90;;;;;;5040685;28;20449;-80
2023/04/08 11:09:41;;;;;;;0.50;0.40;;;11.90;99.90;;;;;;5041105;28;20437;-80
2023/04/08 11:12:08;;;;;;;0.60;0.60;;;12.20;99.90;;;;;;5041852;28;20449;-80
2023/04/08 11:14:37;;;;;;;0.50;0.30;;;12.40;99.90;;;;;;5041489;28;21036;-80
2023/04/08 11:17:04;;;;;;;0.50;0.37;;;12.50;99.90;;;;;;5041112;28;20545;-80
2023/04/08 11:19:32;;;;;;;0.50;0.40;;;12.40;99.90;;;;;;5041741;28;20478;-77
2023/04/08 11:21:58;;;;;;;0.50;0.40;;;12.20;99.90;;;;;;5041825;28;21049;-80
2023/04/08 11:24:27;;;;;;;0.50;0.40;;;12.10;99.90;;;;;;5041623;28;20693;-79
2023/04/08 11:26:54;;;;;;;1.07;1.07;;;12.20;99.90;;;;;;5033792;28;20446;-81
2023/04/08 11:29:21;;;;;;;0.50;0.40;;;12.20;99.90;;;;;;5041301;28;20442;-80
2023/04/08 11:31:50;;;;;;;0.70;0.70;;;12.10;99.90;;;;;;5041531;28;20478;-80
2023/04/08 11:34:23;;;;;;;1.27;1.27;;;12.10;99.90;;;;;;5041224;28;20533;-78
2023/04/08 11:36:50;;;;;;;1.00;1.00;;;12.40;99.90;;;;;;5041570;28;20434;-80
2023/04/08 11:39:17;;;;;;;0.50;0.40;;;12.80;99.90;;;;;;5041513;28;20505;-79
2023/04/08 11:41:46;;;;;;;0.50;0.40;;;13.20;99.90;;;;;;5041768;28;20460;-80
2023/04/08 11:44:12;;;;;;;0.50;0.40;;;13.50;99.90;;;;;;5041734;28;20501;-81
2023/04/08 11:46:41;;;;;;;0.50;0.30;;;13.70;99.90;;;;;;5041054;28;20505;-80
2023/04/08 11:49:09;;;;;;;0.50;0.40;;;13.80;99.90;;;;;;5040878;28;20458;-80
2023/04/08 11:51:54;;;;;;;0.50;0.37;;;13.90;99.90;;;;;;5041147;28;20462;-80
2023/04/08 11:54:28;;;;;;;0.50;0.40;;;14.10;99.90;;;;;;5041124;28;20461;-80
2023/04/08 11:56:57;;;;;;;0.50;0.40;;;14.20;99.90;;;;;;5036455;28;20444;-78
2023/04/08 11:59:24;;;;;;;0.70;0.70;;;14.50;99.90;;;;;;5026828;28;20485;-78
2023/04/08 12:01:52;;;;;;;0.50;0.40;;;14.90;99.90;;;;;;5034319;28;20961;-80
2023/04/08 12:04:19;;;;;;;1.07;0.70;;;15.10;99.90;;;;;;5027567;28;21193;-77
2023/04/08 12:06:46;;;;;;;1.57;0.70;;;14.80;99.90;;;;;;5028597;28;20446;-80
2023/04/08 12:09:13;;;;;;;0.50;0.40;;;14.60;99.90;;;;;;5017379;28;20494;-80
2023/04/08 12:11:39;;;;;;;0.50;0.30;;;14.50;99.90;;;;;;5027365;28;20446;-79
2023/04/08 12:14:08;;;;;;;0.50;0.30;;;14.70;99.90;;;;;;5036061;28;20853;-80
2023/04/08 12:16:35;;;;;;;0.50;0.40;;;14.50;99.90;;;;;;5035834;28;20489;-80
2023/04/08 12:19:02;;;;;;;0.50;0.40;;;14.70;99.90;;;;;;5036611;28;20442;-80
2023/04/08 12:21:28;;;;;;;3.07;1.27;;;14.60;99.90;;;;;;5035691;28;20536;-79
2023/04/08 12:23:55;;;;;;;0.53;0.47;;;14.70;99.90;;;;;;5035715;28;20534;-80
2023/04/08 12:26:23;;;;;;;0.50;0.50;;;14.90;99.90;;;;;;5035120;28;20538;-79
2023/04/08 12:28:50;;;;;;;0.90;0.60;;;14.90;99.90;;;;;;5035720;28;20442;-80
2023/04/08 12:31:18;;;;;;;1.13;1.03;;;14.80;99.90;;;;;;5036158;28;20444;-80
2023/04/08 12:33:45;;;;;;;5.13;2.10;;;14.70;99.90;;;;;;5035436;28;20461;-79
2023/04/08 12:36:11;;;;;;;0.50;0.40;;;14.60;99.90;;;;;;5062667;22;21018;-81
2023/04/08 12:38:38;;;;;;;0.60;0.60;;;14.50;99.90;;;;;;5020450;28;20950;-82
2023/04/08 12:41:06;;;;;;;0.50;0.30;;;14.60;99.90;;;;;;5035190;28;20472;-81
2023/04/08 12:43:33;;;;;;;0.50;0.40;;;14.70;99.90;;;;;;5019046;28;20492;-80
2023/04/08 12:46:02;;;;;;;0.50;0.37;;;14.70;99.90;;;;;;5034647;28;20462;-81
2023/04/08 12:48:30;;;;;;;0.50;0.40;;;14.80;99.90;;;;;;5025617;28;20446;-80
2023/04/08 12:50:57;;;;;;;0.50;0.37;;;14.60;99.90;;;;;;5035774;28;20446;-79
2023/04/08 12:53:24;;;;;;;1.83;1.70;;;14.50;99.90;;;;;;5034828;28;20446;-81
2023/04/08 12:55:55;;;;;;;0.50;0.40;;;14.30;99.90;;;;;;5035112;28;20466;-81
2023/04/08 12:58:23;;;;;;;0.50;0.40;;;14.30;99.90;;;;;;5035226;28;20441;-78